Time;durP1;ratioP1;P1;durP2;ratioP2;P2;SDS_P1;SDS_P2;PMS_P1;PMS_P2;Temp;Humidity;BMP_temperature;BMP_pressure;BME280_temperature;BME280_humidity;BME280_pressure;Samples;Min_cycle;Max_cycle;Signal;HPM_P1;HPM_P2
2022/04/11 00:01:36;;;;;;;4.68;4.38;;;;;;;;;;4998542;28;20173;-88
2022/04/11 00:04:02;;;;;;;4.90;4.45;;;;;;;;;;4984981;28;20253;-88
2022/04/11 00:06:28;;;;;;;7.07;4.68;;;;;;;;;;4992198;28;20189;-88
2022/04/11 00:08:54;;;;;;;4.53;4.30;;;;;;;;;;4992981;28;20181;-88
2022/04/11 00:11:20;;;;;;;8.57;3.83;;;;;;;;;;4957451;28;20428;-88
2022/04/11 00:13:45;;;;;;;5.43;4.30;;;;;;;;;;4992574;28;20236;-88
2022/04/11 00:16:13;;;;;;;4.10;3.90;;;;;;;;;;4994064;28;20760;-88
2022/04/11 00:18:39;;;;;;;5.40;4.40;;;;;;;;;;4994985;28;21005;-88
2022/04/11 00:21:05;;;;;;;5.93;5.40;;;;;;;;;;4996158;28;20212;-88
2022/04/11 00:23:32;;;;;;;8.10;5.97;;;;;;;;;;5005788;28;20634;-88
2022/04/11 00:25:58;;;;;;;4.97;4.57;;;;;;;;;;4969354;28;20950;-88
2022/04/11 00:28:27;;;;;;;4.57;4.30;;;;;;;;;;4985996;28;20189;-88
2022/04/11 00:30:53;;;;;;;4.60;4.47;;;;;;;;;;4996988;28;20424;-88
2022/04/11 00:33:19;;;;;;;5.00;4.70;;;;;;;;;;4973581;28;20185;-88
2022/04/11 00:35:46;;;;;;;5.00;4.80;;;;;;;;;;4956634;28;20166;-88
2022/04/11 00:38:12;;;;;;;6.95;4.90;;;;;;;;;;4972727;28;20575;-88
2022/04/11 00:40:38;;;;;;;5.10;4.70;;;;;;;;;;4969945;28;20204;-89
2022/04/11 00:43:07;;;;;;;4.30;3.90;;;;;;;;;;4979510;28;20487;-88
2022/04/11 00:45:35;;;;;;;5.00;4.68;;;;;;;;;;4994102;28;20432;-88
2022/04/11 00:48:03;;;;;;;4.57;4.38;;;;;;;;;;4991081;28;20204;-88
2022/04/11 00:50:29;;;;;;;5.43;4.93;;;;;;;;;;4969766;28;20177;-88
2022/04/11 00:53:15;;;;;;;5.60;5.15;;;;;;;;;;4976195;28;20190;-87
2022/04/11 00:55:44;;;;;;;5.05;4.22;;;;;;;;;;4990367;28;20234;-88
2022/04/11 00:58:10;;;;;;;5.63;4.75;;;;;;;;;;4973216;28;20660;-89
2022/04/11 01:00:36;;;;;;;5.00;4.70;;;;;;;;;;4975020;28;20272;-89
2022/04/11 01:03:03;;;;;;;5.22;4.72;;;;;;;;;;4947121;28;20481;-88
2022/04/11 01:05:28;;;;;;;5.20;4.75;;;;;;;;;;4976519;28;20233;-88
2022/04/11 01:07:58;;;;;;;5.20;4.77;;;;;;;;;;4975329;28;20232;-89
2022/04/11 01:10:24;;;;;;;4.45;4.15;;;;;;;;;;4971544;28;20436;-89
2022/04/11 01:12:50;;;;;;;4.43;4.20;;;;;;;;;;4990295;28;20241;-89
2022/04/11 01:15:16;;;;;;;5.40;5.05;;;;;;;;;;4966745;28;20601;-89
2022/04/11 01:17:42;;;;;;;5.30;5.00;;;;;;;;;;4973192;28;20217;-88
2022/04/11 01:20:09;;;;;;;6.83;4.53;;;;;;;;;;4986677;28;20507;-89
2022/04/11 01:22:35;;;;;;;4.82;4.43;;;;;;;;;;4986251;28;20985;-88
2022/04/11 01:25:02;;;;;;;4.55;4.18;;;;;;;;;;4952564;28;20228;-89
2022/04/11 01:27:29;;;;;;;4.88;4.57;;;;;;;;;;4989972;28;20193;-88
2022/04/11 01:29:58;;;;;;;4.50;4.25;;;;;;;;;;4978848;28;20217;-88
2022/04/11 01:32:45;;;;;;;5.05;4.60;;;;;;;;;;4974135;28;20194;-88
2022/04/11 01:35:25;;;;;;;4.28;4.00;;;;;;;;;;4986844;28;20228;-88
2022/04/11 01:37:55;;;;;;;4.55;4.30;;;;;;;;;;4972237;28;20211;-88
2022/04/11 01:40:23;;;;;;;4.93;4.70;;;;;;;;;;4959295;28;20721;-88
2022/04/11 01:42:51;;;;;;;6.07;4.90;;;;;;;;;;4989898;28;20588;-89
2022/04/11 01:45:17;;;;;;;4.40;4.28;;;;;;;;;;4982891;28;20192;-88
2022/04/11 01:47:43;;;;;;;5.57;5.00;;;;;;;;;;4984285;28;20189;-88
2022/04/11 01:50:10;;;;;;;4.78;4.50;;;;;;;;;;4966541;28;20277;-89
2022/04/11 01:52:37;;;;;;;4.32;4.22;;;;;;;;;;4965021;28;20185;-88
2022/04/11 01:55:06;;;;;;;4.60;4.40;;;;;;;;;;4996713;28;20255;-95
2022/04/11 01:57:38;;;;;;;4.25;4.05;;;;;;;;;;5013077;28;20237;-95
2022/04/11 02:00:06;;;;;;;5.22;4.88;;;;;;;;;;4982002;28;20205;-93
2022/04/11 02:02:32;;;;;;;4.60;4.25;;;;;;;;;;5007387;28;20210;-95
2022/04/11 02:05:00;;;;;;;5.80;4.75;;;;;;;;;;4986510;28;20199;-94
2022/04/11 02:07:27;;;;;;;5.00;4.50;;;;;;;;;;4967582;28;20193;-94
2022/04/11 02:09:53;;;;;;;4.32;4.13;;;;;;;;;;4998874;28;20327;-95
2022/04/11 02:12:22;;;;;;;6.20;4.80;;;;;;;;;;4992169;28;20189;-94
2022/04/11 02:14:48;;;;;;;5.40;4.60;;;;;;;;;;4990965;28;20523;-94
2022/04/11 02:17:15;;;;;;;4.95;4.75;;;;;;;;;;4993240;28;20181;-93
2022/04/11 02:19:41;;;;;;;4.45;4.10;;;;;;;;;;4989301;28;20177;-95
2022/04/11 02:22:09;;;;;;;4.75;4.55;;;;;;;;;;4992734;28;20196;-95
2022/04/11 02:24:35;;;;;;;3.88;3.75;;;;;;;;;;4969981;28;20190;-94
2022/04/11 02:27:02;;;;;;;5.05;4.75;;;;;;;;;;4996403;28;20205;-94
2022/04/11 02:29:28;;;;;;;6.05;4.70;;;;;;;;;;5031733;23;20238;-90
2022/04/11 02:31:54;;;;;;;4.97;4.57;;;;;;;;;;5056405;28;20229;-89
2022/04/11 02:34:20;;;;;;;5.27;5.03;;;;;;;;;;5060379;28;20205;-89
2022/04/11 02:36:46;;;;;;;15.43;5.18;;;;;;;;;;5066127;28;20439;-88
2022/04/11 02:39:12;;;;;;;5.13;4.82;;;;;;;;;;5066576;28;20191;-88
2022/04/11 02:41:40;;;;;;;5.10;4.77;;;;;;;;;;5029337;28;20275;-88
2022/04/11 02:44:06;;;;;;;5.00;4.55;;;;;;;;;;5048979;28;20495;-89
2022/04/11 02:46:36;;;;;;;3.90;3.70;;;;;;;;;;5048087;28;20309;-91
2022/04/11 02:49:02;;;;;;;5.05;4.80;;;;;;;;;;5068375;28;20218;-89
2022/04/11 02:51:28;;;;;;;7.00;5.13;;;;;;;;;;5073514;28;20174;-88
2022/04/11 02:53:54;;;;;;;4.78;4.38;;;;;;;;;;5067276;28;20738;-89
2022/04/11 02:56:20;;;;;;;4.70;4.40;;;;;;;;;;5068118;28;20218;-89
2022/04/11 02:58:46;;;;;;;5.63;4.80;;;;;;;;;;5079473;28;20190;-89
2022/04/11 03:01:12;;;;;;;4.25;3.88;;;;;;;;;;5085690;28;20167;-88
2022/04/11 03:03:39;;;;;;;10.55;4.68;;;;;;;;;;5079231;28;20210;-89
2022/04/11 03:06:05;;;;;;;6.22;5.72;;;;;;;;;;5084219;28;20216;-90
2022/04/11 03:08:31;;;;;;;5.40;5.10;;;;;;;;;;5055469;28;20281;-88
2022/04/11 03:10:57;;;;;;;5.88;5.53;;;;;;;;;;5040540;28;20230;-89
2022/04/11 03:13:23;;;;;;;5.57;5.00;;;;;;;;;;5042583;28;20562;-90
2022/04/11 03:15:51;;;;;;;5.05;4.68;;;;;;;;;;5056868;28;20410;-90
2022/04/11 03:18:17;;;;;;;5.15;4.68;;;;;;;;;;5064336;28;20179;-89
2022/04/11 03:20:43;;;;;;;5.10;4.70;;;;;;;;;;5049996;28;20701;-90
2022/04/11 03:23:09;;;;;;;5.32;4.88;;;;;;;;;;5077136;28;20241;-89
2022/04/11 03:25:36;;;;;;;5.32;4.75;;;;;;;;;;5062253;28;20183;-90
2022/04/11 03:28:03;;;;;;;9.70;5.20;;;;;;;;;;5058480;28;20641;-89
2022/04/11 03:30:29;;;;;;;8.90;4.80;;;;;;;;;;5062570;28;20218;-88
2022/04/11 03:32:55;;;;;;;8.77;5.10;;;;;;;;;;5047118;28;20206;-89
2022/04/11 03:35:21;;;;;;;4.18;3.95;;;;;;;;;;5056217;28;20290;-89
2022/04/11 03:37:47;;;;;;;5.43;5.13;;;;;;;;;;5050043;28;20692;-91
2022/04/11 03:40:13;;;;;;;6.63;6.15;;;;;;;;;;5045088;28;20187;-91
2022/04/11 03:42:41;;;;;;;5.15;4.75;;;;;;;;;;5062450;28;20212;-90
2022/04/11 03:45:13;;;;;;;5.32;5.00;;;;;;;;;;5066294;28;20214;-90
2022/04/11 03:47:40;;;;;;;3.97;3.50;;;;;;;;;;5069428;28;20591;-90
2022/04/11 03:50:07;;;;;;;8.88;4.95;;;;;;;;;;5061841;28;20179;-90
2022/04/11 03:52:33;;;;;;;5.72;4.57;;;;;;;;;;5048662;28;20184;-90
2022/04/11 03:54:59;;;;;;;4.13;3.92;;;;;;;;;;5047530;28;20188;-89
2022/04/11 03:57:25;;;;;;;4.13;4.00;;;;;;;;;;5080445;28;20197;-90
2022/04/11 03:59:52;;;;;;;6.67;4.43;;;;;;;;;;5048952;28;20419;-90
2022/04/11 04:02:18;;;;;;;4.47;4.20;;;;;;;;;;5053179;28;20525;-88
2022/04/11 04:04:44;;;;;;;5.07;4.65;;;;;;;;;;5086464;28;20206;-89
2022/04/11 04:07:10;;;;;;;5.60;4.72;;;;;;;;;;5066753;28;20293;-90
2022/04/11 04:09:36;;;;;;;4.80;4.50;;;;;;;;;;5054739;23;20222;-87
2022/04/11 04:12:05;;;;;;;4.70;4.27;;;;;;;;;;5067054;28;20426;-89
2022/04/11 04:14:51;;;;;;;5.35;4.88;;;;;;;;;;5056331;28;20442;-89
2022/04/11 04:17:17;;;;;;;4.72;4.43;;;;;;;;;;5052402;28;20286;-88
2022/04/11 04:19:44;;;;;;;5.10;4.80;;;;;;;;;;5059023;28;20435;-90
2022/04/11 04:22:10;;;;;;;4.45;4.25;;;;;;;;;;5090161;28;20215;-89
2022/04/11 04:24:43;;;;;;;6.05;4.15;;;;;;;;;;5057436;28;20160;-85
2022/04/11 04:27:15;;;;;;;5.70;4.88;;;;;;;;;;5058861;28;20190;-88
2022/04/11 04:29:42;;;;;;;4.65;4.43;;;;;;;;;;5054626;28;20171;-90
2022/04/11 04:32:08;;;;;;;4.93;4.45;;;;;;;;;;5072903;28;20746;-90
2022/04/11 04:34:34;;;;;;;5.65;4.47;;;;;;;;;;5061506;28;20255;-89
2022/04/11 04:37:01;;;;;;;4.90;4.60;;;;;;;;;;5069302;28;20211;-89
2022/04/11 04:39:28;;;;;;;5.13;4.78;;;;;;;;;;5048139;28;20194;-90
2022/04/11 04:41:54;;;;;;;4.80;4.40;;;;;;;;;;5046581;28;20195;-89
2022/04/11 04:44:20;;;;;;;5.40;5.00;;;;;;;;;;5058031;28;20235;-87
2022/04/11 04:46:46;;;;;;;5.72;5.22;;;;;;;;;;5043013;28;20187;-89
2022/04/11 04:49:12;;;;;;;5.72;4.93;;;;;;;;;;5047200;28;20191;-90
2022/04/11 04:51:38;;;;;;;6.30;5.50;;;;;;;;;;5036784;28;20267;-87
2022/04/11 04:54:04;;;;;;;7.32;4.40;;;;;;;;;;5051304;28;20237;-90
2022/04/11 04:56:31;;;;;;;5.22;4.80;;;;;;;;;;5061789;28;20191;-89
2022/04/11 04:58:57;;;;;;;4.43;4.22;;;;;;;;;;5048988;28;20244;-89
2022/04/11 05:01:23;;;;;;;5.60;5.35;;;;;;;;;;5033482;28;20175;-89
2022/04/11 05:03:50;;;;;;;8.43;5.32;;;;;;;;;;5049596;28;20204;-89
2022/04/11 05:06:16;;;;;;;5.68;5.07;;;;;;;;;;5041866;28;20218;-89
2022/04/11 05:08:42;;;;;;;6.40;6.10;;;;;;;;;;5028898;28;20378;-88
2022/04/11 05:11:08;;;;;;;6.13;5.60;;;;;;;;;;5042522;28;20483;-87
2022/04/11 05:13:34;;;;;;;6.63;6.20;;;;;;;;;;5046488;28;20185;-90
2022/04/11 05:16:00;;;;;;;8.55;7.70;;;;;;;;;;5037290;28;20184;-88
2022/04/11 05:18:27;;;;;;;10.10;8.95;;;;;;;;;;5040633;28;20190;-89
2022/04/11 05:20:56;;;;;;;8.52;7.68;;;;;;;;;;5055296;28;20204;-89
2022/04/11 05:23:23;;;;;;;8.88;7.93;;;;;;;;;;5034313;28;20260;-90
2022/04/11 05:25:49;;;;;;;12.65;9.10;;;;;;;;;;5032230;28;20179;-91
2022/04/11 05:28:15;;;;;;;18.60;9.77;;;;;;;;;;5059719;28;20198;-90
2022/04/11 05:30:41;;;;;;;10.27;9.25;;;;;;;;;;5039012;28;20191;-87
2022/04/11 05:33:10;;;;;;;12.82;9.25;;;;;;;;;;5023584;28;20176;-91
2022/04/11 05:35:36;;;;;;;11.02;8.82;;;;;;;;;;5041491;28;20463;-88
2022/04/11 05:38:02;;;;;;;9.27;8.48;;;;;;;;;;5042986;28;20283;-89
2022/04/11 05:40:31;;;;;;;8.13;7.53;;;;;;;;;;5051033;28;20199;-90
2022/04/11 05:43:07;;;;;;;8.08;7.38;;;;;;;;;;4896713;28;10000582;-88
2022/04/11 05:45:33;;;;;;;7.20;6.60;;;;;;;;;;5069899;28;20341;-89
2022/04/11 05:47:59;;;;;;;7.45;5.43;;;;;;;;;;5066021;28;20187;-89
2022/04/11 05:50:25;;;;;;;7.25;6.75;;;;;;;;;;5058839;28;20187;-84
2022/04/11 05:52:54;;;;;;;5.72;5.43;;;;;;;;;;5052485;28;20191;-90
2022/04/11 05:55:20;;;;;;;5.72;5.30;;;;;;;;;;5048777;28;20175;-90
2022/04/11 05:57:54;;;;;;;5.23;4.80;;;;;;;;;;5040581;28;20215;-89
2022/04/11 06:00:23;;;;;;;4.70;4.50;;;;;;;;;;5020436;28;20425;-90
2022/04/11 06:05:32;;;;;;;4.40;4.00;;;;;;;;;;5083110;23;20336;-88
2022/04/11 06:11:31;;;;;;;6.23;3.90;;;;;;;;;;5023318;28;20226;-93
2022/04/11 06:14:37;;;;;;;6.53;5.30;;;;;;;;;;5025345;28;20446;-90
2022/04/11 06:17:43;;;;;;;5.87;4.43;;;;;;;;;;5027405;28;20406;-90
2022/04/11 06:20:49;;;;;;;8.60;4.27;;;;;;;;;;5026131;28;20579;-91
2022/04/11 06:23:55;;;;;;;4.63;4.27;;;;;;;;;;5038558;28;20489;-91
2022/04/11 06:27:01;;;;;;;4.57;4.27;;;;;;;;;;5061589;28;20530;-90
2022/04/11 06:30:06;;;;;;;4.60;4.40;;;;;;;;;;5053530;28;20413;-92
2022/04/11 06:33:12;;;;;;;3.63;3.53;;;;;;;;;;5045043;28;20882;-91
2022/04/11 06:36:06;;;;;;;25.40;7.60;;;;;;;;;;5060745;28;21053;-91
2022/04/11 06:39:00;;;;;;;4.90;4.80;;;;;;;;;;5040982;28;20417;-90
2022/04/11 06:41:58;;;;;;;4.13;3.97;;;;;;;;;;5037221;28;20486;-87
2022/04/11 06:44:39;;;;;;;4.83;4.63;;;;;;;;;;5048893;28;20497;-88
2022/04/11 06:47:06;;;;;;;5.00;4.70;;;;;;;;;;5035722;28;20480;-88
2022/04/11 06:49:51;;;;;;;11.03;4.70;;;;;;;;;;5034569;28;20991;-89
2022/04/11 06:52:26;;;;;;;4.43;3.33;;;;;;;;;;5034770;28;20421;-89
2022/04/11 06:54:58;;;;;;;8.83;8.00;;;;;;;;;;5039117;28;20424;-88
2022/04/11 06:57:24;;;;;;;4.03;3.80;;;;;;;;;;5017513;28;20966;-86
2022/04/11 06:59:51;;;;;;;3.53;3.13;;;;;;;;;;5011599;28;20438;-86
2022/04/11 07:02:17;;;;;;;4.50;4.10;;;;;;;;;;5034963;28;20469;-86
2022/04/11 07:04:43;;;;;;;3.13;2.60;;;;;;;;;;5047654;28;20495;-84
2022/04/11 07:07:09;;;;;;;3.70;3.20;;;;;;;;;;5039144;28;20438;-85
2022/04/11 07:09:35;;;;;;;3.27;3.07;;;;;;;;;;5049524;28;20426;-86
2022/04/11 07:12:01;;;;;;;3.60;3.50;;;;;;;;;;5049360;28;20519;-86
2022/04/11 07:14:27;;;;;;;4.23;3.73;;;;;;;;;;5032880;28;20418;-85
2022/04/11 07:16:53;;;;;;;3.50;3.40;;;;;;;;;;5033551;28;20441;-86
2022/04/11 07:19:28;;;;;;;3.23;3.03;;;;;;;;;;5057717;28;20422;-87
2022/04/11 07:21:54;;;;;;;5.00;4.70;;;;;;;;;;5060277;28;20401;-90
2022/04/11 07:24:23;;;;;;;4.43;4.00;;;;;;;;;;5050219;28;20469;-88
2022/04/11 07:30:09;;;;;;;4.37;3.97;;;;;;;;;;5064209;28;20421;-87
2022/04/11 07:32:38;;;;;;;4.13;3.80;;;;;;;;;;5049503;28;20417;-88
2022/04/11 07:37:57;;;;;;;4.53;4.13;;;;;;;;;;5037371;28;20565;-88
2022/04/11 07:41:01;;;;;;;4.00;3.80;;;;;;;;;;5040440;28;20437;-88
2022/04/11 07:44:07;;;;;;;3.23;3.10;;;;;;;;;;4666724;28;10001192;-88
2022/04/11 07:47:13;;;;;;;3.60;3.40;;;;;;;;;;5012043;28;20442;-90
2022/04/11 07:50:19;;;;;;;3.63;3.43;;;;;;;;;;5012442;28;20635;-89
2022/04/11 07:53:25;;;;;;;3.30;3.10;;;;;;;;;;5011306;28;20423;-91
2022/04/11 07:56:32;;;;;;;2.80;2.70;;;;;;;;;;5011188;28;20431;-88
2022/04/11 07:59:38;;;;;;;3.20;3.10;;;;;;;;;;5034871;28;20788;-89
2022/04/11 08:02:43;;;;;;;2.57;2.47;;;;;;;;;;5018758;28;20471;-91
2022/04/11 08:05:49;;;;;;;3.27;3.07;;;;;;;;;;5013409;28;20503;-89
2022/04/11 08:08:58;;;;;;;3.50;3.23;;;;;;;;;;5040667;28;20468;-89
2022/04/11 08:11:41;;;;;;;3.20;3.00;;;;;;;;;;5065602;22;20632;-87
2022/04/11 08:14:07;;;;;;;5.00;3.00;;;;;;;;;;5088653;28;20434;-88
2022/04/11 08:16:33;;;;;;;3.10;2.90;;;;;;;;;;5085288;28;20505;-87
2022/04/11 08:19:02;;;;;;;3.77;3.50;;;;;;;;;;5069348;28;20736;-86
2022/04/11 08:21:28;;;;;;;5.10;3.10;;;;;;;;;;5080574;28;21105;-86
2022/04/11 08:23:54;;;;;;;2.97;2.97;;;;;;;;;;5076973;28;20528;-86
2022/04/11 08:26:20;;;;;;;2.27;2.17;;;;;;;;;;5056416;28;20443;-87
2022/04/11 08:28:46;;;;;;;4.87;3.27;;;;;;;;;;5055803;28;20444;-86
2022/04/11 08:31:12;;;;;;;2.87;2.77;;;;;;;;;;5073030;28;20465;-87
2022/04/11 08:33:38;;;;;;;3.53;3.23;;;;;;;;;;5053524;28;20423;-88
2022/04/11 08:36:04;;;;;;;3.07;2.87;;;;;;;;;;5083472;28;20924;-86
2022/04/11 08:38:30;;;;;;;2.50;2.40;;;;;;;;;;5079232;28;20477;-89
2022/04/11 08:41:04;;;;;;;2.43;2.33;;;;;;;;;;5069334;28;20436;-89
2022/04/11 08:43:32;;;;;;;2.33;2.33;;;;;;;;;;5073429;28;20460;-89
2022/04/11 08:46:02;;;;;;;3.37;3.17;;;;;;;;;;5072352;28;20439;-88
2022/04/11 08:48:32;;;;;;;2.63;2.53;;;;;;;;;;5063412;28;20459;-88
2022/04/11 08:50:58;;;;;;;2.97;2.87;;;;;;;;;;5072087;28;20778;-85
2022/04/11 08:53:47;;;;;;;3.37;3.10;;;;;;;;;;5060312;28;20448;-87
2022/04/11 08:56:42;;;;;;;2.37;2.37;;;;;;;;;;5066300;28;20424;-88
2022/04/11 08:59:17;;;;;;;2.90;2.70;;;;;;;;;;5073790;28;20425;-89
2022/04/11 09:01:43;;;;;;;3.07;2.87;;;;;;;;;;5089584;28;20443;-88
2022/04/11 09:04:09;;;;;;;3.87;3.07;;;;;;;;;;5076684;28;20498;-88
2022/04/11 09:06:38;;;;;;;2.53;2.33;;;;;;;;;;5097893;28;20480;-88
2022/04/11 09:09:04;;;;;;;3.87;3.30;;;;;;;;;;5105532;28;20443;-87
2022/04/11 09:11:36;;;;;;;2.83;2.73;;;;;;;;;;5085360;28;20457;-88
2022/04/11 09:14:05;;;;;;;3.07;2.97;;;;;;;;;;5084270;28;20440;-86
2022/04/11 09:16:53;;;;;;;2.90;2.70;;;;;;;;;;5085792;28;20409;-87
2022/04/11 09:19:21;;;;;;;2.80;2.80;;;;;;;;;;5084061;28;20462;-88
2022/04/11 09:21:48;;;;;;;2.67;2.57;;;;;;;;;;5087751;28;20442;-87
2022/04/11 09:24:16;;;;;;;3.17;2.93;;;;;;;;;;5082311;28;20477;-87
2022/04/11 09:27:04;;;;;;;3.10;2.90;;;;;;;;;;5058472;28;20413;-87
2022/04/11 09:29:33;;;;;;;3.70;3.40;;;;;;;;;;5056646;28;20429;-88
2022/04/11 09:32:03;;;;;;;3.17;3.00;;;;;;;;;;5056773;28;20444;-84
2022/04/11 09:34:30;;;;;;;2.60;2.60;;;;;;;;;;5072842;28;20547;-82
2022/04/11 09:37:10;;;;;;;3.63;3.53;;;;;;;;;;5072825;28;20803;-88
2022/04/11 09:39:44;;;;;;;3.07;2.90;;;;;;;;;;5077002;28;20451;-88
2022/04/11 09:42:10;;;;;;;3.00;2.80;;;;;;;;;;5067016;28;20425;-88
2022/04/11 09:44:38;;;;;;;5.40;3.10;;;;;;;;;;5080619;28;20439;-87
2022/04/11 09:47:05;;;;;;;3.27;3.17;;;;;;;;;;5103112;28;20431;-88
2022/04/11 09:49:34;;;;;;;3.43;3.33;;;;;;;;;;5097463;28;20428;-90
2022/04/11 09:52:11;;;;;;;3.13;2.90;;;;;;;;;;5088361;28;20431;-89
2022/04/11 09:54:42;;;;;;;3.47;3.17;;;;;;;;;;5099632;28;20454;-89
2022/04/11 09:57:14;;;;;;;2.80;2.70;;;;;;;;;;5106343;28;20422;-88
2022/04/11 09:59:43;;;;;;;2.97;2.83;;;;;;;;;;5106833;28;20399;-88
2022/04/11 10:02:29;;;;;;;3.40;3.10;;;;;;;;;;5134190;22;20578;-90
2022/04/11 10:05:35;;;;;;;4.70;3.40;;;;;;;;;;5048381;28;20926;-91
2022/04/11 10:08:41;;;;;;;3.47;3.33;;;;;;;;;;5050043;28;20456;-89
2022/04/11 10:11:46;;;;;;;3.20;3.00;;;;;;;;;;5040585;28;20454;-90
2022/04/11 10:14:52;;;;;;;2.80;2.73;;;;;;;;;;5047635;28;20418;-88
2022/04/11 10:17:58;;;;;;;3.27;3.27;;;;;;;;;;5040345;28;20457;-89
2022/04/11 10:21:04;;;;;;;3.10;3.00;;;;;;;;;;5037892;28;20421;-86
2022/04/11 10:23:56;;;;;;;2.67;2.57;;;;;;;;;;5040698;28;20477;-86
2022/04/11 10:27:05;;;;;;;3.47;3.27;;;;;;;;;;5050969;28;20461;-88
2022/04/11 10:30:12;;;;;;;3.47;3.37;;;;;;;;;;5049006;28;20437;-88
2022/04/11 10:33:17;;;;;;;4.97;4.13;;;;;;;;;;5045989;28;20751;-94
2022/04/11 10:36:23;;;;;;;3.97;3.67;;;;;;;;;;5040376;28;20490;-90
2022/04/11 10:39:15;;;;;;;3.53;3.30;;;;;;;;;;5037734;28;20418;-86
2022/04/11 10:42:02;;;;;;;3.30;3.20;;;;;;;;;;5040489;28;20483;-86
2022/04/11 10:45:13;;;;;;;3.37;3.17;;;;;;;;;;5046269;28;21156;-87
2022/04/11 10:48:24;;;;;;;3.60;3.40;;;;;;;;;;5034848;28;20502;-87
2022/04/11 10:51:24;;;;;;;3.20;3.10;;;;;;;;;;5035306;28;20425;-86
2022/04/11 10:54:36;;;;;;;3.77;3.50;;;;;;;;;;5044600;28;20500;-91
2022/04/11 10:57:42;;;;;;;4.23;3.80;;;;;;;;;;5044524;28;20935;-89
2022/04/11 11:00:51;;;;;;;3.70;3.50;;;;;;;;;;5042754;28;20480;-90
2022/04/11 11:03:57;;;;;;;3.67;3.43;;;;;;;;;;5043908;28;20876;-90
2022/04/11 11:07:03;;;;;;;3.87;3.67;;;;;;;;;;5045970;28;21031;-91
2022/04/11 11:10:10;;;;;;;5.00;4.03;;;;;;;;;;5035652;28;20493;-94
2022/04/11 11:13:17;;;;;;;3.70;3.50;;;;;;;;;;5037352;28;20441;-93
2022/04/11 11:16:21;;;;;;;3.60;3.40;;;;;;;;;;5039763;28;20909;-93
2022/04/11 11:19:29;;;;;;;2.90;2.77;;;;;;;;;;5046526;28;20463;-91
2022/04/11 11:22:47;;;;;;;2.93;2.93;;;;;;;;;;5036377;28;20505;-94
2022/04/11 11:25:45;;;;;;;3.67;3.57;;;;;;;;;;5045094;28;20499;-93
2022/04/11 11:28:47;;;;;;;4.23;3.90;;;;;;;;;;5043701;28;20651;-89
2022/04/11 11:31:53;;;;;;;3.10;3.00;;;;;;;;;;5045280;28;20588;-91
2022/04/11 11:34:59;;;;;;;3.60;3.50;;;;;;;;;;5050943;28;20429;-90
2022/04/11 11:38:05;;;;;;;3.33;3.13;;;;;;;;;;5044852;28;20437;-89
2022/04/11 11:41:14;;;;;;;4.00;3.90;;;;;;;;;;5046167;28;20529;-89
2022/04/11 11:44:20;;;;;;;3.00;2.90;;;;;;;;;;5043588;28;20543;-89
2022/04/11 11:47:30;;;;;;;5.97;3.25;;;;;;;;;;4845156;28;10001119;-89
2022/04/11 11:50:36;;;;;;;3.20;3.00;;;;;;;;;;5040731;28;20383;-89
2022/04/11 11:53:42;;;;;;;2.60;2.60;;;;;;;;;;5045931;28;20501;-89
2022/04/11 11:56:48;;;;;;;3.70;3.40;;;;;;;;;;5046801;28;20429;-89
2022/04/11 11:59:54;;;;;;;3.87;3.60;;;;;;;;;;5045175;28;20445;-90
2022/04/11 12:06:05;;;;;;;3.67;3.57;;;;;;;;;;5044661;28;20583;-89
2022/04/11 12:09:19;;;;;;;6.57;3.37;;;;;;;;;;5041853;28;20450;-89
2022/04/11 12:12:25;;;;;;;4.50;4.10;;;;;;;;;;5037912;28;20437;-92
2022/04/11 12:15:31;;;;;;;3.60;3.50;;;;;;;;;;5047050;28;20471;-90
2022/04/11 12:18:37;;;;;;;3.17;3.17;;;;;;;;;;5043410;28;21292;-90
2022/04/11 12:21:32;;;;;;;4.63;3.63;;;;;;;;;;5046199;28;20495;-90
2022/04/11 12:24:38;;;;;;;3.20;3.10;;;;;;;;;;5047966;28;20516;-89
2022/04/11 12:27:49;;;;;;;3.30;3.30;;;;;;;;;;5048206;28;20812;-88
2022/04/11 12:30:53;;;;;;;3.33;3.23;;;;;;;;;;5046854;28;20453;-89
2022/04/11 12:34:01;;;;;;;3.40;3.40;;;;;;;;;;5048736;28;20425;-90
2022/04/11 12:37:19;;;;;;;4.60;4.17;;;;;;;;;;5047237;28;20495;-90
2022/04/11 12:40:22;;;;;;;3.27;3.27;;;;;;;;;;5039660;28;20834;-90
2022/04/11 12:43:28;;;;;;;3.23;3.13;;;;;;;;;;5054349;28;20477;-90
2022/04/11 12:46:34;;;;;;;3.00;2.90;;;;;;;;;;5042202;28;20795;-90
2022/04/11 12:49:40;;;;;;;3.20;3.10;;;;;;;;;;5043153;28;20953;-90
2022/04/11 12:52:46;;;;;;;3.20;3.10;;;;;;;;;;5034848;28;20419;-90
2022/04/11 12:55:52;;;;;;;3.10;3.00;;;;;;;;;;5048889;28;20475;-90
2022/04/11 12:58:58;;;;;;;3.30;3.13;;;;;;;;;;5051235;28;20846;-87
2022/04/11 13:01:52;;;;;;;2.70;2.60;;;;;;;;;;5045188;28;20456;-89
2022/04/11 13:04:58;;;;;;;2.73;2.73;;;;;;;;;;4696863;28;10000375;-90
2022/04/11 13:08:10;;;;;;;3.43;3.33;;;;;;;;;;5038773;28;20319;-89
2022/04/11 13:11:13;;;;;;;2.70;2.50;;;;;;;;;;5046047;28;20442;-89
2022/04/11 13:14:20;;;;;;;2.57;2.50;;;;;;;;;;5039020;28;20441;-91
2022/04/11 13:20:30;;;;;;;2.77;2.73;;;;;;;;;;5045887;28;20994;-91
2022/04/11 13:23:36;;;;;;;2.37;2.27;;;;;;;;;;5052313;28;20551;-90
2022/04/11 13:26:42;;;;;;;2.73;2.63;;;;;;;;;;5050007;28;20926;-89
2022/04/11 13:29:53;;;;;;;4.17;3.87;;;;;;;;;;5050629;28;21222;-90
2022/04/11 13:32:59;;;;;;;2.43;2.30;;;;;;;;;;5050554;28;20452;-90
2022/04/11 13:36:05;;;;;;;2.63;2.63;;;;;;;;;;5050601;28;20434;-91
2022/04/11 13:39:11;;;;;;;5.57;3.03;;;;;;;;;;5050362;28;20444;-92
2022/04/11 13:42:17;;;;;;;2.40;2.30;;;;;;;;;;5050687;28;20814;-91
2022/04/11 13:45:22;;;;;;;2.27;2.27;;;;;;;;;;5051622;28;20801;-90
2022/04/11 13:48:34;;;;;;;2.73;2.60;;;;;;;;;;5046890;28;20481;-90
2022/04/11 13:51:40;;;;;;;3.97;3.77;;;;;;;;;;5060359;28;21007;-91
2022/04/11 13:54:55;;;;;;;2.57;2.37;;;;;;;;;;5061768;28;20953;-89
2022/04/11 13:58:16;;;;;;;2.57;2.47;;;;;;;;;;5062502;28;20421;-88
2022/04/11 14:01:14;;;;;;;2.53;2.43;;;;;;;;;;5062467;28;20430;-90
2022/04/11 14:04:22;;;;;;;2.20;2.20;;;;;;;;;;5046801;28;20484;-89
2022/04/11 14:07:26;;;;;;;2.23;2.23;;;;;;;;;;5019005;28;20438;-90
2022/04/11 14:10:35;;;;;;;2.30;2.20;;;;;;;;;;5030798;28;20438;-88
2022/04/11 14:13:41;;;;;;;2.47;2.43;;;;;;;;;;5030507;28;20520;-90
2022/04/11 14:16:47;;;;;;;2.60;2.50;;;;;;;;;;5028227;28;21060;-91
2022/04/11 14:19:52;;;;;;;2.10;2.00;;;;;;;;;;5026362;28;20810;-88
2022/04/11 14:23:04;;;;;;;2.00;2.00;;;;;;;;;;5029313;28;20513;-91
2022/04/11 14:26:10;;;;;;;1.90;1.80;;;;;;;;;;5023406;28;20437;-87
2022/04/11 14:29:16;;;;;;;2.40;2.37;;;;;;;;;;5031857;28;20427;-87
2022/04/11 14:32:22;;;;;;;3.40;2.33;;;;;;;;;;5028390;28;20434;-90
2022/04/11 14:35:28;;;;;;;2.80;2.60;;;;;;;;;;5026054;28;20454;-91
2022/04/11 14:38:37;;;;;;;2.63;2.53;;;;;;;;;;5029481;28;20418;-89
2022/04/11 14:41:39;;;;;;;2.70;2.60;;;;;;;;;;5032287;28;20434;-87
2022/04/11 14:44:45;;;;;;;2.00;2.00;;;;;;;;;;5031556;28;20470;-90
2022/04/11 14:47:52;;;;;;;2.50;2.30;;;;;;;;;;5027951;28;20982;-84
2022/04/11 14:50:57;;;;;;;5.10;2.30;;;;;;;;;;5029097;28;20423;-91
2022/04/11 14:54:03;;;;;;;2.60;2.57;;;;;;;;;;5022480;28;20548;-91
2022/04/11 14:57:09;;;;;;;2.80;2.70;;;;;;;;;;5020470;28;20625;-90
2022/04/11 15:00:24;;;;;;;2.50;2.43;;;;;;;;;;5022901;28;20849;-90
2022/04/11 15:03:30;;;;;;;2.67;2.57;;;;;;;;;;5041709;28;20496;-90
2022/04/11 15:06:48;;;;;;;3.40;3.30;;;;;;;;;;5044467;28;20827;-91
2022/04/11 15:09:54;;;;;;;3.00;2.80;;;;;;;;;;5044555;28;21021;-88
2022/04/11 15:13:00;;;;;;;2.40;2.40;;;;;;;;;;5040892;28;20475;-89
2022/04/11 15:16:06;;;;;;;2.80;2.70;;;;;;;;;;5043756;28;20825;-89
2022/04/11 15:19:12;;;;;;;2.57;2.47;;;;;;;;;;5043476;28;20950;-90
2022/04/11 15:22:21;;;;;;;2.50;2.47;;;;;;;;;;5039010;28;20456;-89
2022/04/11 15:25:23;;;;;;;2.43;2.43;;;;;;;;;;5041060;28;20464;-90
2022/04/11 15:28:29;;;;;;;3.00;2.80;;;;;;;;;;5049726;28;20453;-91
2022/04/11 15:31:35;;;;;;;3.43;3.00;;;;;;;;;;5032925;28;20422;-89
2022/04/11 15:34:47;;;;;;;2.70;2.60;;;;;;;;;;5054274;28;20930;-91
2022/04/11 15:37:54;;;;;;;3.07;2.90;;;;;;;;;;5052202;28;20803;-90
2022/04/11 15:40:59;;;;;;;2.93;2.80;;;;;;;;;;5046105;28;20948;-92
2022/04/11 15:44:08;;;;;;;3.23;2.93;;;;;;;;;;5047512;28;20560;-92
2022/04/11 15:47:14;;;;;;;2.50;2.47;;;;;;;;;;5048172;28;20499;-90
2022/04/11 15:50:20;;;;;;;4.40;2.70;;;;;;;;;;5053265;28;20552;-89
2022/04/11 15:53:26;;;;;;;2.70;2.60;;;;;;;;;;5055392;28;20433;-89
2022/04/11 15:56:35;;;;;;;3.07;2.97;;;;;;;;;;5056978;28;20893;-93
2022/04/11 15:59:40;;;;;;;2.90;2.83;;;;;;;;;;5059872;28;20526;-92
2022/04/11 16:02:46;;;;;;;2.63;2.53;;;;;;;;;;5046299;28;20456;-90
2022/04/11 16:05:57;;;;;;;3.00;2.70;;;;;;;;;;5044441;28;20434;-90
2022/04/11 16:08:58;;;;;;;3.07;2.87;;;;;;;;;;5033047;28;20658;-89
2022/04/11 16:12:13;;;;;;;2.60;2.60;;;;;;;;;;5036225;28;20515;-92
2022/04/11 16:15:29;;;;;;;3.03;3.00;;;;;;;;;;5037119;28;20435;-93
2022/04/11 16:20:47;;;;;;;3.40;3.40;;;;;;;;;;4933789;22;10002084;-88
2022/04/11 16:23:14;;;;;;;2.23;2.03;;;;;;;;;;5007414;28;20349;-90
2022/04/11 16:26:03;;;;;;;;;;;;;;;;;;;;;
2022/04/11 16:28:38;;;;;;;2.63;2.63;;;;;;;;;;5006305;28;20505;-89
2022/04/11 16:31:24;;;;;;;2.63;2.63;;;;;;;;;;5035416;22;20537;-90
2022/04/11 16:34:54;;;;;;;2.30;2.20;;;;;;;;;;5064399;28;20486;-93
2022/04/11 16:38:01;;;;;;;3.07;2.77;;;;;;;;;;5049242;28;20516;-93
2022/04/11 16:41:07;;;;;;;2.30;2.20;;;;;;;;;;5035381;28;20410;-93